Time;durP1;ratioP1;P1;durP2;ratioP2;P2;SDS_P1;SDS_P2;PMS_P1;PMS_P2;Temp;Humidity;BMP_temperature;BMP_pressure;BME280_temperature;BME280_humidity;BME280_pressure;Samples;Min_cycle;Max_cycle;Signal;HPM_P1;HPM_P2
2022/08/15 00:01:10;;;;;;;5.47;4.10;;;;;;;;;;4997730;28;20121;-83
2022/08/15 00:03:41;;;;;;;4.30;3.80;;;;;;;;;;4998332;28;20045;-83
2022/08/15 00:06:11;;;;;;;4.35;3.60;;;;;;;;;;4997942;28;20038;-84
2022/08/15 00:08:40;;;;;;;5.00;3.90;;;;;;;;;;4997589;28;20049;-84
2022/08/15 00:11:15;;;;;;;5.22;3.97;;;;;;;;;;4997827;28;20064;-83
2022/08/15 00:13:43;;;;;;;7.55;3.67;;;;;;;;;;4997572;28;20385;-83
2022/08/15 00:16:10;;;;;;;5.28;3.80;;;;;;;;;;4996949;28;20025;-85
2022/08/15 00:18:35;;;;;;;4.65;3.90;;;;;;;;;;4997712;28;20038;-85
2022/08/15 00:21:03;;;;;;;4.70;4.00;;;;;;;;;;4997761;28;20034;-85
2022/08/15 00:23:29;;;;;;;4.88;3.70;;;;;;;;;;4998051;28;20030;-83
2022/08/15 00:25:58;;;;;;;7.07;3.78;;;;;;;;;;4998187;28;20142;-83
2022/08/15 00:28:28;;;;;;;6.40;4.05;;;;;;;;;;4998237;28;20034;-85
2022/08/15 00:30:56;;;;;;;4.78;3.75;;;;;;;;;;4997339;28;20034;-84
2022/08/15 00:33:21;;;;;;;4.60;3.78;;;;;;;;;;4997186;28;20145;-84
2022/08/15 00:35:49;;;;;;;5.22;3.90;;;;;;;;;;4996740;28;20407;-84
2022/08/15 00:38:21;;;;;;;3.97;3.58;;;;;;;;;;4979895;28;20038;-84
2022/08/15 00:43:52;;;;;;;4.07;3.65;;;;;;;;;;4996412;28;20633;-83
2022/08/15 00:46:18;;;;;;;5.10;3.80;;;;;;;;;;4979114;28;20038;-85
2022/08/15 00:48:46;;;;;;;4.20;3.80;;;;;;;;;;4979860;28;20116;-83
2022/08/15 00:51:11;;;;;;;5.28;3.55;;;;;;;;;;4963827;28;20026;-83
2022/08/15 00:53:37;;;;;;;4.50;3.75;;;;;;;;;;4996866;28;20121;-84
2022/08/15 00:56:05;;;;;;;6.55;4.20;;;;;;;;;;4996549;28;20545;-84
2022/08/15 00:58:31;;;;;;;4.13;3.50;;;;;;;;;;4979458;28;20439;-84
2022/08/15 01:00:57;;;;;;;5.68;3.80;;;;;;;;;;4963355;28;20081;-83
2022/08/15 01:03:27;;;;;;;4.43;3.70;;;;;;;;;;4979553;28;20037;-82
2022/08/15 01:05:56;;;;;;;4.10;3.50;;;;;;;;;;4996271;28;20042;-86
2022/08/15 01:08:33;;;;;;;6.70;3.80;;;;;;;;;;4996490;28;20065;-84
2022/08/15 01:11:04;;;;;;;4.63;3.60;;;;;;;;;;4996342;28;20031;-84
2022/08/15 01:13:31;;;;;;;4.55;3.92;;;;;;;;;;4979147;28;20061;-83
2022/08/15 01:15:57;;;;;;;6.68;3.95;;;;;;;;;;4979068;28;20391;-83
2022/08/15 01:18:23;;;;;;;4.40;3.80;;;;;;;;;;4979415;28;20038;-83
2022/08/15 01:20:53;;;;;;;4.47;4.00;;;;;;;;;;4979322;28;20030;-84
2022/08/15 01:23:26;;;;;;;5.38;4.00;;;;;;;;;;4978829;28;20038;-84
2022/08/15 01:25:56;;;;;;;4.43;3.90;;;;;;;;;;4996161;28;20033;-84
2022/08/15 01:28:26;;;;;;;8.80;4.18;;;;;;;;;;4978472;28;20040;-83
2022/08/15 01:31:00;;;;;;;5.57;4.00;;;;;;;;;;4996197;28;20038;-83
2022/08/15 01:33:27;;;;;;;5.28;4.00;;;;;;;;;;4978480;28;20125;-82
2022/08/15 01:35:54;;;;;;;8.23;3.88;;;;;;;;;;4978195;28;20505;-83
2022/08/15 01:38:22;;;;;;;4.95;4.13;;;;;;;;;;4978389;28;20053;-83
2022/08/15 01:41:09;;;;;;;4.25;3.75;;;;;;;;;;4978434;28;20038;-83
2022/08/15 01:43:41;;;;;;;5.30;4.10;;;;;;;;;;4979009;28;20085;-83
2022/08/15 01:46:10;;;;;;;6.45;3.70;;;;;;;;;;4978784;28;20041;-83
2022/08/15 01:48:45;;;;;;;6.53;3.90;;;;;;;;;;4979287;28;20092;-84
2022/08/15 01:51:12;;;;;;;4.50;3.88;;;;;;;;;;4979097;28;20045;-82
2022/08/15 01:53:46;;;;;;;4.63;3.90;;;;;;;;;;4978542;28;20034;-83
2022/08/15 01:56:27;;;;;;;4.45;3.90;;;;;;;;;;4995806;28;20121;-84
2022/08/15 01:58:54;;;;;;;4.60;3.60;;;;;;;;;;4978454;28;20060;-84
2022/08/15 02:01:35;;;;;;;4.47;3.78;;;;;;;;;;4980718;28;20038;-85
2022/08/15 02:04:01;;;;;;;8.23;4.03;;;;;;;;;;4981708;28;20035;-84
2022/08/15 02:06:29;;;;;;;5.47;3.70;;;;;;;;;;4978255;28;20098;-85
2022/08/15 02:08:56;;;;;;;4.95;3.65;;;;;;;;;;4962423;28;20529;-84
2022/08/15 02:11:28;;;;;;;4.15;3.60;;;;;;;;;;4978031;28;20053;-83
2022/08/15 02:13:56;;;;;;;4.60;3.70;;;;;;;;;;4995268;28;20491;-83
2022/08/15 02:16:35;;;;;;;4.68;3.50;;;;;;;;;;4962798;28;20435;-84
2022/08/15 02:19:03;;;;;;;3.90;3.50;;;;;;;;;;4978279;28;20491;-84
2022/08/15 02:21:28;;;;;;;4.70;4.00;;;;;;;;;;4977814;28;20407;-84
2022/08/15 02:23:56;;;;;;;4.30;3.70;;;;;;;;;;4978193;28;20027;-83
2022/08/15 02:26:22;;;;;;;4.82;3.80;;;;;;;;;;4978322;28;20072;-83
2022/08/15 02:28:49;;;;;;;4.65;3.65;;;;;;;;;;4977897;28;20042;-84
2022/08/15 02:31:20;;;;;;;6.45;3.58;;;;;;;;;;4977713;28;20038;-84
2022/08/15 02:33:50;;;;;;;7.15;3.65;;;;;;;;;;4977895;28;20042;-84
2022/08/15 02:36:18;;;;;;;4.50;3.90;;;;;;;;;;4978746;28;20054;-84
2022/08/15 02:38:45;;;;;;;5.72;4.00;;;;;;;;;;4994659;28;20037;-84
2022/08/15 02:41:19;;;;;;;5.68;3.70;;;;;;;;;;4995341;28;20026;-83
2022/08/15 02:43:46;;;;;;;4.55;3.40;;;;;;;;;;4995537;28;20034;-83
2022/08/15 02:46:16;;;;;;;4.65;3.63;;;;;;;;;;4994799;28;20104;-84
2022/08/15 02:48:48;;;;;;;5.50;3.83;;;;;;;;;;4978018;28;20081;-84
2022/08/15 02:51:18;;;;;;;6.35;4.00;;;;;;;;;;4978842;28;20073;-83
2022/08/15 02:53:46;;;;;;;4.35;3.95;;;;;;;;;;4999423;28;20099;-83
2022/08/15 02:56:12;;;;;;;4.72;3.80;;;;;;;;;;4981942;28;20034;-83
2022/08/15 02:58:38;;;;;;;6.80;3.90;;;;;;;;;;4981545;28;20057;-84
2022/08/15 03:01:09;;;;;;;4.47;3.60;;;;;;;;;;4981504;28;20042;-83
2022/08/15 03:03:38;;;;;;;5.05;4.00;;;;;;;;;;4981157;28;20034;-83
2022/08/15 03:06:10;;;;;;;5.35;3.95;;;;;;;;;;4965261;28;20045;-83
2022/08/15 03:08:39;;;;;;;6.70;3.75;;;;;;;;;;4965690;28;20034;-83
2022/08/15 03:11:06;;;;;;;6.00;3.90;;;;;;;;;;4981185;28;20027;-83
2022/08/15 03:13:34;;;;;;;4.75;3.55;;;;;;;;;;4965938;28;20114;-83
2022/08/15 03:16:01;;;;;;;4.70;3.83;;;;;;;;;;4981456;28;20082;-83
2022/08/15 03:18:33;;;;;;;4.30;3.83;;;;;;;;;;4981305;28;20026;-83
2022/08/15 03:21:05;;;;;;;4.60;3.80;;;;;;;;;;4981355;28;20014;-85
2022/08/15 03:23:32;;;;;;;5.68;3.67;;;;;;;;;;4981070;28;20036;-84
2022/08/15 03:26:00;;;;;;;4.65;3.72;;;;;;;;;;4965007;28;20517;-85
2022/08/15 03:28:31;;;;;;;7.18;3.95;;;;;;;;;;4980908;28;20038;-85
2022/08/15 03:31:03;;;;;;;4.53;3.63;;;;;;;;;;4981084;28;20037;-84
2022/08/15 03:33:31;;;;;;;4.70;3.88;;;;;;;;;;4964722;28;20041;-84
2022/08/15 03:35:57;;;;;;;8.07;3.80;;;;;;;;;;4980812;28;20124;-84
2022/08/15 03:38:24;;;;;;;5.30;3.50;;;;;;;;;;4980954;28;20136;-84
2022/08/15 03:40:51;;;;;;;4.60;4.07;;;;;;;;;;4964693;28;20630;-84
2022/08/15 03:43:21;;;;;;;4.43;3.80;;;;;;;;;;4980992;28;20038;-84
2022/08/15 03:45:53;;;;;;;6.00;3.92;;;;;;;;;;4964592;28;20034;-84
2022/08/15 03:48:35;;;;;;;4.90;3.80;;;;;;;;;;4998443;28;20117;-84
2022/08/15 03:51:02;;;;;;;4.93;3.97;;;;;;;;;;4980835;28;20037;-84
2022/08/15 03:53:35;;;;;;;5.10;3.83;;;;;;;;;;4980212;28;20030;-84
2022/08/15 03:56:05;;;;;;;4.50;3.72;;;;;;;;;;4980321;28;20038;-83
2022/08/15 03:58:34;;;;;;;4.65;4.10;;;;;;;;;;4980531;28;20034;-83
2022/08/15 04:01:00;;;;;;;5.18;3.83;;;;;;;;;;4980363;28;20045;-83
2022/08/15 04:03:29;;;;;;;4.30;3.90;;;;;;;;;;4980105;28;20126;-84
2022/08/15 04:05:58;;;;;;;4.55;3.95;;;;;;;;;;4980217;28;20495;-84
2022/08/15 04:08:26;;;;;;;4.47;3.58;;;;;;;;;;4980564;28;20077;-84
2022/08/15 04:10:53;;;;;;;4.65;3.70;;;;;;;;;;4980421;28;20129;-83
2022/08/15 04:13:25;;;;;;;5.57;3.95;;;;;;;;;;4980407;28;20034;-84
2022/08/15 04:15:55;;;;;;;5.10;3.55;;;;;;;;;;4980254;28;20514;-83
2022/08/15 04:18:21;;;;;;;4.18;3.40;;;;;;;;;;4980164;28;20491;-84
2022/08/15 04:20:48;;;;;;;5.32;3.90;;;;;;;;;;4979491;28;20041;-84
2022/08/15 04:23:14;;;;;;;5.35;3.63;;;;;;;;;;4980000;28;20034;-84
2022/08/15 04:25:43;;;;;;;6.13;3.90;;;;;;;;;;4979880;28;20046;-83
2022/08/15 04:28:14;;;;;;;6.10;3.83;;;;;;;;;;4980045;28;20034;-85
2022/08/15 04:30:43;;;;;;;4.18;3.78;;;;;;;;;;4963944;28;20034;-84
2022/08/15 04:33:08;;;;;;;6.15;4.03;;;;;;;;;;4979832;28;20054;-84
2022/08/15 04:35:35;;;;;;;7.30;3.80;;;;;;;;;;4979215;28;20062;-84
2022/08/15 04:38:01;;;;;;;7.03;3.67;;;;;;;;;;4979759;28;20034;-84
2022/08/15 04:40:28;;;;;;;4.65;4.00;;;;;;;;;;4978755;28;20061;-83
2022/08/15 04:42:58;;;;;;;4.50;3.70;;;;;;;;;;4979347;28;20057;-83
2022/08/15 04:45:28;;;;;;;7.35;4.10;;;;;;;;;;4963279;28;20122;-84
2022/08/15 04:47:53;;;;;;;6.10;3.67;;;;;;;;;;4979840;28;20400;-85
2022/08/15 04:50:20;;;;;;;4.15;3.30;;;;;;;;;;4979516;28;20606;-83
2022/08/15 04:52:55;;;;;;;5.60;3.53;;;;;;;;;;4980803;28;20100;-83
2022/08/15 04:55:25;;;;;;;5.25;3.80;;;;;;;;;;4979362;28;20034;-84
2022/08/15 04:57:52;;;;;;;5.30;3.80;;;;;;;;;;4979528;28;20045;-84
2022/08/15 05:00:21;;;;;;;4.50;3.80;;;;;;;;;;4979884;28;20034;-84
2022/08/15 05:03:04;;;;;;;5.55;3.60;;;;;;;;;;4965313;28;20566;-84
2022/08/15 05:05:33;;;;;;;5.53;3.78;;;;;;;;;;4979327;28;20426;-83
2022/08/15 05:07:59;;;;;;;4.07;3.40;;;;;;;;;;4979016;28;20030;-84
2022/08/15 05:10:30;;;;;;;5.18;3.80;;;;;;;;;;4978413;28;20617;-84
2022/08/15 05:12:56;;;;;;;5.00;2.80;;;;;;;;;;4996652;28;20074;-84
2022/08/15 05:15:22;;;;;;;4.72;2.60;;;;;;;;;;4995948;28;20034;-83
2022/08/15 05:17:48;;;;;;;5.63;2.45;;;;;;;;;;4979429;28;20108;-84
2022/08/15 05:20:17;;;;;;;4.53;2.60;;;;;;;;;;4978905;28;20088;-84
2022/08/15 05:22:58;;;;;;;4.97;2.70;;;;;;;;;;4996689;28;20027;-84
2022/08/15 05:25:23;;;;;;;5.38;2.60;;;;;;;;;;4979177;28;20125;-84
2022/08/15 05:27:49;;;;;;;6.30;2.45;;;;;;;;;;4979154;28;20053;-84
2022/08/15 05:30:15;;;;;;;7.70;2.90;;;;;;;;;;4978543;28;20045;-83
2022/08/15 05:32:41;;;;;;;4.95;2.40;;;;;;;;;;4978375;28;20038;-84
2022/08/15 05:35:08;;;;;;;4.03;2.55;;;;;;;;;;4978788;28;20034;-85
2022/08/15 05:37:34;;;;;;;3.85;2.60;;;;;;;;;;4963150;28;20030;-85
2022/08/15 05:39:59;;;;;;;3.92;2.60;;;;;;;;;;4978684;28;20042;-85
2022/08/15 05:42:38;;;;;;;6.07;2.65;;;;;;;;;;4996321;28;20038;-84
2022/08/15 05:45:19;;;;;;;5.35;2.50;;;;;;;;;;4979413;28;20065;-84
2022/08/15 05:47:58;;;;;;;6.80;2.40;;;;;;;;;;4962611;28;20044;-84
2022/08/15 05:50:31;;;;;;;5.90;2.63;;;;;;;;;;4979389;28;20030;-84
2022/08/15 05:53:22;;;;;;;5.25;2.75;;;;;;;;;;4978465;28;20117;-84
2022/08/15 05:56:06;;;;;;;5.85;2.60;;;;;;;;;;4962713;28;20034;-84
2022/08/15 05:58:42;;;;;;;3.72;2.35;;;;;;;;;;4996332;28;20027;-83
2022/08/15 06:01:17;;;;;;;4.50;2.50;;;;;;;;;;4978189;28;20384;-83
2022/08/15 06:03:56;;;;;;;4.25;2.28;;;;;;;;;;4978267;28;20034;-84
2022/08/15 06:06:29;;;;;;;5.40;2.50;;;;;;;;;;4962436;28;20038;-83
2022/08/15 06:09:06;;;;;;;4.50;2.28;;;;;;;;;;4962181;28;20030;-83
2022/08/15 06:11:43;;;;;;;4.18;2.38;;;;;;;;;;4977969;28;20399;-83
2022/08/15 06:14:41;;;;;;;3.17;2.20;;;;;;;;;;4977881;28;20088;-84
2022/08/15 06:17:15;;;;;;;3.72;1.98;;;;;;;;;;4977644;28;20145;-82
2022/08/15 06:19:43;;;;;;;2.90;1.90;;;;;;;;;;4977984;28;20069;-83
2022/08/15 06:22:27;;;;;;;7.90;2.20;;;;;;;;;;4978186;28;20034;-84
2022/08/15 06:25:14;;;;;;;4.35;2.17;;;;;;;;;;4977932;28;20041;-83
2022/08/15 06:27:57;;;;;;;4.53;2.45;;;;;;;;;;4961608;28;20034;-84
2022/08/15 06:30:43;;;;;;;3.10;2.00;;;;;;;;;;4977860;28;20034;-82
2022/08/15 06:33:37;;;;;;;3.58;1.83;;;;;;;;;;4978121;28;20041;-82
2022/08/15 06:36:13;;;;;;;3.85;2.75;;;;;;;;;;4977559;28;20042;-83
2022/08/15 06:39:01;;;;;;;4.43;2.40;;;;;;;;;;4979292;28;20037;-84
2022/08/15 06:41:56;;;;;;;5.03;2.60;;;;;;;;;;4980448;28;20093;-84
2022/08/15 06:44:31;;;;;;;;;;;;;;;;;;4978042;28;20474;-84
2022/08/15 06:47:04;;;;;;;4.13;2.65;;;;;;;;;;4978118;28;19918;-84
2022/08/15 06:49:45;;;;;;;3.40;2.17;;;;;;;;;;4977948;28;20509;-84
2022/08/15 06:52:15;;;;;;;4.97;2.50;;;;;;;;;;4977919;28;20419;-84
2022/08/15 06:54:41;;;;;;;3.55;3.03;;;;;;;;;;4978735;28;20057;-85
2022/08/15 06:57:26;;;;;;;3.38;2.35;;;;;;;;;;4980467;28;20030;-84
2022/08/15 07:00:01;;;;;;;4.93;2.00;;;;;;;;;;4981601;28;20061;-84
2022/08/15 07:02:51;;;;;;;2.92;1.83;;;;;;;;;;4983105;28;20033;-84
2022/08/15 07:05:22;;;;;;;;;;;;;;;;;;4967279;28;20066;-84
2022/08/15 07:08:01;;;;;;;4.68;1.80;;;;;;;;;;4979788;28;20049;-85
2022/08/15 07:10:50;;;;;;;4.18;1.80;;;;;;;;;;4984655;28;20407;-84
2022/08/15 07:13:51;;;;;;;2.50;1.50;;;;;;;;;;4995607;28;20031;-85
2022/08/15 07:16:23;;;;;;;3.30;1.65;;;;;;;;;;4978547;28;20042;-84
2022/08/15 07:18:53;;;;;;;1.70;1.60;;;;;;;;;;4977847;28;20418;-84
2022/08/15 07:21:37;;;;;;;3.22;1.67;;;;;;;;;;4978009;28;20285;-84
2022/08/15 07:24:16;;;;;;;6.43;1.95;;;;;;;;;;4976916;28;20034;-84
2022/08/15 07:26:51;;;;;;;2.28;1.60;;;;;;;;;;4977392;28;20045;-84
2022/08/15 07:29:35;;;;;;;3.05;1.65;;;;;;;;;;4962482;28;20034;-84
2022/08/15 07:32:25;;;;;;;3.83;1.60;;;;;;;;;;4977701;28;20457;-83
2022/08/15 07:35:12;;;;;;;5.00;1.73;;;;;;;;;;4977762;28;20046;-83
2022/08/15 07:37:48;;;;;;;4.35;1.70;;;;;;;;;;4996863;28;20030;-84
2022/08/15 07:40:23;;;;;;;2.75;1.80;;;;;;;;;;4980641;28;20088;-84
2022/08/15 07:42:49;;;;;;;3.65;1.80;;;;;;;;;;4982145;28;20072;-85
2022/08/15 07:45:26;;;;;;;2.63;1.80;;;;;;;;;;4986115;28;20041;-83
2022/08/15 07:48:24;;;;;;;5.18;1.90;;;;;;;;;;4987698;28;20061;-83
2022/08/15 07:51:18;;;;;;;4.60;2.03;;;;;;;;;;4987603;28;20096;-83
2022/08/15 07:53:58;;;;;;;4.07;2.03;;;;;;;;;;4987768;28;20039;-84
2022/08/15 07:56:33;;;;;;;5.25;2.15;;;;;;;;;;4987299;28;20069;-82
2022/08/15 07:59:33;;;;;;;3.92;1.95;;;;;;;;;;4988107;28;20034;-83
2022/08/15 08:02:34;;;;;;;7.00;2.22;;;;;;;;;;4994042;28;20034;-83
2022/08/15 08:05:01;;;;;;;4.20;2.20;;;;;;;;;;4970771;28;20065;-84
2022/08/15 08:07:31;;;;;;;4.43;2.20;;;;;;;;;;4987280;28;20167;-83
2022/08/15 08:10:03;;;;;;;4.80;2.15;;;;;;;;;;4986675;28;20034;-84
2022/08/15 08:12:47;;;;;;;4.15;2.35;;;;;;;;;;4971298;28;20031;-83
2022/08/15 08:15:19;;;;;;;3.83;2.10;;;;;;;;;;4987485;28;20403;-84
2022/08/15 08:17:52;;;;;;;5.55;2.40;;;;;;;;;;5004310;28;20034;-83
2022/08/15 08:20:45;;;;;;;4.45;2.10;;;;;;;;;;5005304;28;20070;-83
2022/08/15 08:23:22;;;;;;;6.90;2.30;;;;;;;;;;4988213;28;20038;-83
2022/08/15 08:26:18;;;;;;;3.72;2.33;;;;;;;;;;4988561;28;20022;-83
2022/08/15 08:29:08;;;;;;;4.50;2.38;;;;;;;;;;4988186;28;20545;-83
2022/08/15 08:31:49;;;;;;;5.47;2.53;;;;;;;;;;4989075;28;20100;-84
2022/08/15 08:34:33;;;;;;;4.50;2.45;;;;;;;;;;5005609;28;20066;-82
2022/08/15 08:37:11;;;;;;;3.70;2.38;;;;;;;;;;5005626;28;20040;-83
2022/08/15 08:39:39;;;;;;;3.70;2.08;;;;;;;;;;4986889;28;20080;-82
2022/08/15 08:42:27;;;;;;;4.60;2.55;;;;;;;;;;5004245;28;20030;-83
2022/08/15 08:45:15;;;;;;;3.88;2.25;;;;;;;;;;4987349;28;20046;-83
2022/08/15 08:48:22;;;;;;;2.75;2.05;;;;;;;;;;4986004;28;20045;-83
2022/08/15 08:50:52;;;;;;;4.00;2.15;;;;;;;;;;4980044;28;20055;-84
2022/08/15 08:53:29;;;;;;;3.10;2.13;;;;;;;;;;4996765;28;20054;-83
2022/08/15 08:56:31;;;;;;;3.30;2.03;;;;;;;;;;4981062;28;20245;-83
2022/08/15 08:59:50;;;;;;;5.35;2.22;;;;;;;;;;5002081;28;20113;-82
2022/08/15 09:02:27;;;;;;;4.20;2.30;;;;;;;;;;4979218;28;20039;-83
2022/08/15 09:05:08;;;;;;;3.70;2.35;;;;;;;;;;4982968;28;20046;-83
2022/08/15 09:07:40;;;;;;;2.63;2.17;;;;;;;;;;5003603;28;20050;-83
2022/08/15 09:10:08;;;;;;;4.90;2.23;;;;;;;;;;5003448;28;20035;-83
2022/08/15 09:15:30;;;;;;;5.75;2.30;;;;;;;;;;5003631;28;20045;-82
2022/08/15 09:18:01;;;;;;;3.70;2.38;;;;;;;;;;4985937;28;20031;-83
2022/08/15 09:20:33;;;;;;;4.25;2.38;;;;;;;;;;5003623;28;20077;-82
2022/08/15 09:23:00;;;;;;;5.70;2.20;;;;;;;;;;5002752;28;20030;-83
2022/08/15 09:25:29;;;;;;;3.97;2.10;;;;;;;;;;4985394;28;20094;-82
2022/08/15 09:28:25;;;;;;;3.17;2.10;;;;;;;;;;5004774;28;20501;-82
2022/08/15 09:30:51;;;;;;;3.08;2.20;;;;;;;;;;5002910;28;20053;-85
2022/08/15 09:33:36;;;;;;;3.10;2.30;;;;;;;;;;5002752;28;20049;-84
2022/08/15 09:36:07;;;;;;;2.63;1.98;;;;;;;;;;4984067;28;20038;-83
2022/08/15 09:39:10;;;;;;;3.85;2.05;;;;;;;;;;5002694;28;20038;-84
2022/08/15 09:42:01;;;;;;;3.45;2.05;;;;;;;;;;5003024;28;20034;-84
2022/08/15 09:44:53;;;;;;;4.38;2.00;;;;;;;;;;5003148;28;20034;-84
2022/08/15 09:47:45;;;;;;;4.20;2.00;;;;;;;;;;5004081;28;20466;-83
2022/08/15 09:50:36;;;;;;;3.42;2.00;;;;;;;;;;5004122;28;20491;-83
2022/08/15 09:53:05;;;;;;;6.07;2.90;;;;;;;;;;4985850;28;20129;-84
2022/08/15 09:55:47;;;;;;;3.55;1.70;;;;;;;;;;4986924;28;20042;-83
2022/08/15 09:58:31;;;;;;;5.10;2.03;;;;;;;;;;5004792;28;20038;-86
2022/08/15 10:01:18;;;;;;;2.67;1.88;;;;;;;;;;5004137;28;20495;-83
2022/08/15 10:03:43;;;;;;;2.55;1.75;;;;;;;;;;5003706;28;20273;-84
2022/08/15 10:06:24;;;;;;;2.60;1.85;;;;;;;;;;5004612;28;20068;-83
2022/08/15 10:08:53;;;;;;;3.33;1.80;;;;;;;;;;5003401;28;20042;-84
2022/08/15 10:11:52;;;;;;;2.25;1.70;;;;;;;;;;5003339;28;20060;-84
2022/08/15 10:14:20;;;;;;;4.00;1.77;;;;;;;;;;5004395;28;20045;-84
2022/08/15 10:16:52;;;;;;;5.30;1.90;;;;;;;;;;4987360;28;20030;-83
2022/08/15 10:19:29;;;;;;;4.07;1.90;;;;;;;;;;5005572;28;20495;-83
2022/08/15 10:21:55;;;;;;;2.75;1.80;;;;;;;;;;5005530;28;20038;-83
2022/08/15 10:24:34;;;;;;;3.55;1.70;;;;;;;;;;5005846;28;20030;-83
2022/08/15 10:27:19;;;;;;;2.42;1.70;;;;;;;;;;4986020;28;20031;-84
2022/08/15 10:29:47;;;;;;;2.22;1.67;;;;;;;;;;4986353;28;20039;-84
2022/08/15 10:32:35;;;;;;;2.70;1.88;;;;;;;;;;4987650;28;20045;-84
2022/08/15 10:35:15;;;;;;;4.15;1.80;;;;;;;;;;5006016;28;20169;-83
2022/08/15 10:37:51;;;;;;;2.90;1.80;;;;;;;;;;5005093;28;20049;-83
2022/08/15 10:40:58;;;;;;;4.63;2.28;;;;;;;;;;5004071;28;20046;-84
2022/08/15 10:43:41;;;;;;;5.13;1.95;;;;;;;;;;4992507;28;20136;-83
2022/08/15 10:46:23;;;;;;;3.53;1.70;;;;;;;;;;5002029;28;20042;-83
2022/08/15 10:49:02;;;;;;;3.28;1.80;;;;;;;;;;5003526;28;20061;-83
2022/08/15 10:51:56;;;;;;;3.80;1.73;;;;;;;;;;5005660;28;20045;-83
2022/08/15 10:54:44;;;;;;;2.78;1.88;;;;;;;;;;4988344;28;20104;-83
2022/08/15 10:57:12;;;;;;;2.47;1.80;;;;;;;;;;5006618;28;20042;-83
2022/08/15 10:59:42;;;;;;;2.72;1.85;;;;;;;;;;5005768;28;20035;-84
2022/08/15 11:02:23;;;;;;;6.53;2.00;;;;;;;;;;5006810;28;20348;-84
2022/08/15 11:04:48;;;;;;;3.33;1.80;;;;;;;;;;5005122;28;20030;-84
2022/08/15 11:07:29;;;;;;;2.78;1.88;;;;;;;;;;4982796;28;20522;-83
2022/08/15 11:09:58;;;;;;;4.10;1.90;;;;;;;;;;4997684;28;20034;-86
2022/08/15 11:12:28;;;;;;;3.17;2.03;;;;;;;;;;4988343;28;20030;-85
2022/08/15 11:14:59;;;;;;;3.47;1.80;;;;;;;;;;5008652;28;20035;-85
2022/08/15 11:17:29;;;;;;;2.70;1.80;;;;;;;;;;5008005;28;20041;-85
2022/08/15 11:20:04;;;;;;;6.72;1.98;;;;;;;;;;5009692;28;20030;-84
2022/08/15 11:22:37;;;;;;;3.13;1.90;;;;;;;;;;4991918;28;20034;-85
2022/08/15 11:25:12;;;;;;;3.15;1.80;;;;;;;;;;5008818;28;20073;-85
2022/08/15 11:27:38;;;;;;;3.58;1.85;;;;;;;;;;5008065;28;20046;-85
2022/08/15 11:30:07;;;;;;;2.55;1.48;;;;;;;;;;5008019;28;20113;-85
2022/08/15 11:32:36;;;;;;;3.97;1.60;;;;;;;;;;5008464;28;20045;-85
2022/08/15 11:35:25;;;;;;;4.43;1.73;;;;;;;;;;5007160;28;20499;-84
2022/08/15 11:37:54;;;;;;;3.45;1.70;;;;;;;;;;5007910;28;20141;-84
2022/08/15 11:40:40;;;;;;;3.22;1.70;;;;;;;;;;5007756;28;20085;-85
2022/08/15 11:43:07;;;;;;;3.33;1.50;;;;;;;;;;5008306;28;20033;-84
2022/08/15 11:45:41;;;;;;;4.18;1.77;;;;;;;;;;5008469;28;20034;-84
2022/08/15 11:48:13;;;;;;;3.40;1.77;;;;;;;;;;4974397;28;20454;-84
2022/08/15 11:50:41;;;;;;;2.17;1.60;;;;;;;;;;4990767;28;20073;-84
2022/08/15 11:53:11;;;;;;;3.30;1.70;;;;;;;;;;4991078;28;20038;-84
2022/08/15 11:55:38;;;;;;;3.28;1.60;;;;;;;;;;4990896;28;20030;-85
2022/08/15 11:58:12;;;;;;;4.57;1.83;;;;;;;;;;5008094;28;20130;-84
2022/08/15 12:00:57;;;;;;;2.67;1.48;;;;;;;;;;5007992;28;20061;-85
2022/08/15 12:03:34;;;;;;;2.67;1.60;;;;;;;;;;5008146;28;20034;-85
2022/08/15 12:06:11;;;;;;;2.20;1.67;;;;;;;;;;5008222;28;20093;-85
2022/08/15 12:08:38;;;;;;;3.17;1.92;;;;;;;;;;4990865;28;20046;-85
2022/08/15 12:11:18;;;;;;;4.22;1.95;;;;;;;;;;5007722;28;20030;-85
2022/08/15 12:13:58;;;;;;;3.35;1.50;;;;;;;;;;4990694;28;20053;-85
2022/08/15 12:16:34;;;;;;;2.50;1.70;;;;;;;;;;5006856;28;20034;-84
2022/08/15 12:19:38;;;;;;;3.85;1.80;;;;;;;;;;5007663;28;20058;-85
2022/08/15 12:22:13;;;;;;;3.22;1.77;;;;;;;;;;4989686;28;20045;-85
2022/08/15 12:24:42;;;;;;;3.00;1.80;;;;;;;;;;5003589;28;20049;-87
2022/08/15 12:27:10;;;;;;;2.63;1.80;;;;;;;;;;4983969;28;20038;-87
2022/08/15 12:29:37;;;;;;;3.13;1.60;;;;;;;;;;5000896;28;20041;-86
2022/08/15 12:32:05;;;;;;;6.10;1.90;;;;;;;;;;4986868;28;20046;-85
2022/08/15 12:34:36;;;;;;;4.32;1.85;;;;;;;;;;4991121;28;20110;-85
2022/08/15 12:37:09;;;;;;;3.13;1.70;;;;;;;;;;5007549;28;20087;-85
2022/08/15 12:39:35;;;;;;;3.17;1.98;;;;;;;;;;5007919;28;20050;-85
2022/08/15 12:42:01;;;;;;;3.40;2.10;;;;;;;;;;5009449;28;20038;-85
2022/08/15 12:44:30;;;;;;;2.38;1.90;;;;;;;;;;4992190;28;20106;-84
2022/08/15 12:46:57;;;;;;;3.92;1.90;;;;;;;;;;4991739;28;20495;-84
2022/08/15 12:49:23;;;;;;;2.30;1.70;;;;;;;;;;5008548;28;20407;-84
2022/08/15 12:51:48;;;;;;;3.83;1.80;;;;;;;;;;5007795;28;20030;-85
2022/08/15 12:54:15;;;;;;;3.30;1.98;;;;;;;;;;5006987;28;20030;-83
2022/08/15 12:56:43;;;;;;;3.97;2.00;;;;;;;;;;5008178;28;20034;-84
2022/08/15 12:59:08;;;;;;;3.17;1.90;;;;;;;;;;5007828;28;20105;-85
2022/08/15 13:01:36;;;;;;;4.72;2.05;;;;;;;;;;5006014;28;20045;-84
2022/08/15 13:04:06;;;;;;;2.70;1.90;;;;;;;;;;4989831;28;20044;-84
2022/08/15 13:06:42;;;;;;;4.55;2.15;;;;;;;;;;5007045;28;20040;-85
2022/08/15 13:09:09;;;;;;;2.88;2.00;;;;;;;;;;5006396;28;20071;-84
2022/08/15 13:11:36;;;;;;;3.17;2.10;;;;;;;;;;4989770;28;20050;-86
2022/08/15 13:14:01;;;;;;;4.15;1.90;;;;;;;;;;4988941;28;20030;-83
2022/08/15 13:16:30;;;;;;;3.08;1.95;;;;;;;;;;4991683;28;20126;-83
2022/08/15 13:18:56;;;;;;;4.65;2.20;;;;;;;;;;5008364;28;20038;-86
2022/08/15 13:24:06;;;;;;;3.35;1.98;;;;;;;;;;5007926;28;20470;-85
2022/08/15 13:26:33;;;;;;;2.63;1.75;;;;;;;;;;5008687;28;20038;-85
2022/08/15 13:29:00;;;;;;;3.00;2.00;;;;;;;;;;4991345;28;20106;-86
2022/08/15 13:31:25;;;;;;;4.28;1.98;;;;;;;;;;4991064;28;20034;-85
2022/08/15 13:33:51;;;;;;;3.17;2.03;;;;;;;;;;5008959;28;20085;-85
2022/08/15 13:36:22;;;;;;;4.70;2.20;;;;;;;;;;5008070;28;20338;-86
2022/08/15 13:38:49;;;;;;;2.97;2.08;;;;;;;;;;5009270;28;20042;-86
2022/08/15 13:41:18;;;;;;;4.55;2.10;;;;;;;;;;5007215;28;20030;-85
2022/08/15 13:43:47;;;;;;;5.45;2.10;;;;;;;;;;5007225;28;20027;-86
2022/08/15 13:46:15;;;;;;;3.83;1.90;;;;;;;;;;5006488;28;20053;-85
2022/08/15 13:48:45;;;;;;;3.50;1.88;;;;;;;;;;5007149;28;20038;-85
2022/08/15 13:51:25;;;;;;;2.20;1.88;;;;;;;;;;5006960;28;20157;-86
2022/08/15 13:53:56;;;;;;;3.67;1.85;;;;;;;;;;4989897;28;20045;-85
2022/08/15 13:56:22;;;;;;;2.45;1.70;;;;;;;;;;5006668;28;20038;-85
2022/08/15 13:58:47;;;;;;;4.00;1.60;;;;;;;;;;5004605;28;20078;-86
2022/08/15 14:01:23;;;;;;;3.03;1.90;;;;;;;;;;5000393;28;20042;-88
2022/08/15 14:04:00;;;;;;;5.20;1.83;;;;;;;;;;4983722;28;20540;-85
2022/08/15 14:06:26;;;;;;;2.28;1.50;;;;;;;;;;4982882;28;20064;-85
2022/08/15 14:08:52;;;;;;;3.25;1.48;;;;;;;;;;5003124;28;20503;-85
2022/08/15 14:11:19;;;;;;;3.05;1.60;;;;;;;;;;4980448;28;20121;-84
2022/08/15 14:13:44;;;;;;;2.25;1.55;;;;;;;;;;4995958;28;20053;-83
2022/08/15 14:16:12;;;;;;;2.17;1.48;;;;;;;;;;4996278;28;20026;-84
2022/08/15 14:18:39;;;;;;;2.92;1.63;;;;;;;;;;4997061;28;20034;-84
2022/08/15 14:21:05;;;;;;;3.65;1.50;;;;;;;;;;4996675;28;20076;-84
2022/08/15 14:23:32;;;;;;;3.75;1.50;;;;;;;;;;4984409;28;20034;-83
2022/08/15 14:25:58;;;;;;;3.20;1.83;;;;;;;;;;5002694;28;20045;-84
2022/08/15 14:28:24;;;;;;;1.75;1.52;;;;;;;;;;5000885;28;20479;-83
2022/08/15 14:30:49;;;;;;;2.65;1.67;;;;;;;;;;4999962;28;20113;-84
2022/08/15 14:33:15;;;;;;;3.40;1.60;;;;;;;;;;4998194;28;20094;-83
2022/08/15 14:35:40;;;;;;;2.00;1.40;;;;;;;;;;4996498;28;20070;-83
2022/08/15 14:38:07;;;;;;;4.15;1.65;;;;;;;;;;4997303;28;20089;-84
2022/08/15 14:40:37;;;;;;;3.88;1.75;;;;;;;;;;4996723;28;20422;-84
2022/08/15 14:43:12;;;;;;;3.80;1.48;;;;;;;;;;4997078;28;20049;-84
2022/08/15 14:45:38;;;;;;;3.63;1.60;;;;;;;;;;4979458;28;20034;-82
2022/08/15 14:48:10;;;;;;;2.15;1.50;;;;;;;;;;5000578;28;20026;-84
2022/08/15 14:50:37;;;;;;;2.33;1.45;;;;;;;;;;5000775;28;20445;-85
2022/08/15 14:53:04;;;;;;;3.72;1.60;;;;;;;;;;5000404;28;20043;-84
2022/08/15 14:55:31;;;;;;;4.28;1.70;;;;;;;;;;5000614;28;20038;-85
2022/08/15 14:57:58;;;;;;;3.38;1.70;;;;;;;;;;4983865;28;20042;-85
2022/08/15 15:00:24;;;;;;;2.03;1.50;;;;;;;;;;5001683;28;20126;-85
2022/08/15 15:02:55;;;;;;;2.25;1.60;;;;;;;;;;5000772;28;20034;-84
2022/08/15 15:05:21;;;;;;;2.78;1.58;;;;;;;;;;5000964;28;20542;-84
2022/08/15 15:07:47;;;;;;;2.53;1.55;;;;;;;;;;5001257;28;20091;-84
2022/08/15 15:10:13;;;;;;;2.95;1.63;;;;;;;;;;5002116;28;20094;-85
2022/08/15 15:12:39;;;;;;;3.55;1.50;;;;;;;;;;4983966;28;20022;-85
2022/08/15 15:15:05;;;;;;;2.53;1.60;;;;;;;;;;5001615;28;20162;-86
2022/08/15 15:17:33;;;;;;;4.20;1.63;;;;;;;;;;5001177;28;20038;-84
2022/08/15 15:19:59;;;;;;;2.03;1.45;;;;;;;;;;5004331;28;20050;-86
2022/08/15 15:22:24;;;;;;;2.65;1.60;;;;;;;;;;4988164;28;20038;-84
2022/08/15 15:24:51;;;;;;;2.88;1.90;;;;;;;;;;5003901;28;20102;-84
2022/08/15 15:27:17;;;;;;;2.65;1.70;;;;;;;;;;4985979;28;20046;-83